createdAt,value
2018-11-21T00:03:27.899Z,62.40
2018-11-21T00:08:31.389Z,62.00
2018-11-21T00:13:34.906Z,62.70
2018-11-21T00:18:38.458Z,63.20
2018-11-21T00:23:41.949Z,63.00
2018-11-21T00:28:45.463Z,63.60
2018-11-21T00:33:50.579Z,63.20
2018-11-21T00:38:54.084Z,62.00
2018-11-21T00:43:57.587Z,62.40
2018-11-21T00:49:01.045Z,62.70
2018-11-21T00:54:04.664Z,62.20
2018-11-21T00:59:08.316Z,62.10
2018-11-21T01:04:11.837Z,61.60
2018-11-21T01:09:15.761Z,61.60
2018-11-21T01:14:19.268Z,61.30
2018-11-21T01:19:22.849Z,61.30
2018-11-21T01:24:26.350Z,62.10
2018-11-21T01:29:29.831Z,62.80
2018-11-21T01:34:33.345Z,63.40
2018-11-21T01:39:36.847Z,62.80
2018-11-21T01:44:40.345Z,64.20
2018-11-21T01:49:43.876Z,64.20
2018-11-21T01:54:47.356Z,64.80
2018-11-21T01:59:52.244Z,65.30
2018-11-21T02:04:55.753Z,64.90
2018-11-21T02:09:59.251Z,63.90
2018-11-21T02:15:02.720Z,62.40
2018-11-21T02:20:07.704Z,62.00
2018-11-21T02:25:11.218Z,61.10
2018-11-21T02:30:14.732Z,61.40
2018-11-21T02:35:25.674Z,60.70
2018-11-21T02:40:29.216Z,61.80
2018-11-21T02:45:32.774Z,62.90
2018-11-21T02:50:36.286Z,61.80
2018-11-21T02:55:39.766Z,62.20
2018-11-21T03:00:43.292Z,62.70
2018-11-21T03:05:46.787Z,62.50
2018-11-21T03:10:50.323Z,62.10
2018-11-21T03:15:53.831Z,62.40
2018-11-21T03:20:57.386Z,62.20
2018-11-21T03:26:02.494Z,63.40
2018-11-21T03:31:06.196Z,62.30
2018-11-21T03:36:09.741Z,63.40
2018-11-21T03:41:13.532Z,66.50
2018-11-21T03:46:16.990Z,67.00
2018-11-21T03:51:20.465Z,66.00
2018-11-21T03:56:23.953Z,67.30
2018-11-21T04:01:27.456Z,67.20
2018-11-21T04:06:30.952Z,68.20
2018-11-21T04:11:34.444Z,68.70
2018-11-21T04:16:37.934Z,69.60
2018-11-21T04:21:41.399Z,70.10
2018-11-21T04:26:44.942Z,70.80
2018-11-21T04:31:48.444Z,71.50
2018-11-21T04:36:51.941Z,71.80
2018-11-21T04:41:55.443Z,71.60
2018-11-21T04:46:58.954Z,71.30
2018-11-21T04:52:02.547Z,70.50
2018-11-21T04:57:06.729Z,71.00
2018-11-21T05:02:11.474Z,70.30
2018-11-21T05:07:15.433Z,69.50
2018-11-21T05:12:21.132Z,69.50
2018-11-21T05:17:24.857Z,69.50
2018-11-21T05:22:28.348Z,68.30
2018-11-21T05:27:31.839Z,68.10
2018-11-21T05:32:35.341Z,68.40
2018-11-21T05:37:38.866Z,68.10
2018-11-21T05:42:42.397Z,68.10
2018-11-21T05:47:45.885Z,67.20
2018-11-21T05:52:49.416Z,67.00
2018-11-21T05:57:52.935Z,66.50
2018-11-21T06:02:56.424Z,66.20
2018-11-21T06:07:59.941Z,66.40
2018-11-21T06:13:03.430Z,66.80
2018-11-21T06:18:06.919Z,66.40
2018-11-21T06:23:10.437Z,66.20
2018-11-21T06:28:14.128Z,66.30
2018-11-21T06:33:17.639Z,66.60
2018-11-21T06:38:21.202Z,74.00
2018-11-21T06:43:24.771Z,67.90
2018-11-21T06:48:28.276Z,64.40
2018-11-21T06:53:31.731Z,64.40
2018-11-21T06:58:35.324Z,64.90
2018-11-21T07:03:38.831Z,65.10
2018-11-21T07:08:42.319Z,65.60
2018-11-21T07:13:45.803Z,66.20
2018-11-21T07:18:51.615Z,66.60
2018-11-21T07:23:55.129Z,66.40
2018-11-21T07:28:58.722Z,65.80
2018-11-21T07:34:02.435Z,65.90
2018-11-21T07:39:08.809Z,65.80
2018-11-21T07:44:13.512Z,65.70
2018-11-21T07:49:17.011Z,65.70
2018-11-21T07:54:20.586Z,65.30
2018-11-21T07:59:24.201Z,65.00
2018-11-21T08:04:40.391Z,65.10
2018-11-21T08:10:12.520Z,65.00
2018-11-21T08:15:37.912Z,65.30
2018-11-21T08:21:03.478Z,65.50
2018-11-21T08:26:26.695Z,65.60
2018-11-21T08:31:30.414Z,65.20
2018-11-21T08:36:36.660Z,65.90
2018-11-21T08:41:41.773Z,65.50
2018-11-21T08:46:45.353Z,65.40
2018-11-21T08:51:48.909Z,65.40
2018-11-21T08:56:55.936Z,65.10
2018-11-21T09:02:04.010Z,65.10
2018-11-21T09:07:07.508Z,64.70
2018-11-21T09:12:11.139Z,64.80
2018-11-21T09:17:14.561Z,64.50
2018-11-21T09:22:18.027Z,64.60
2018-11-21T09:27:21.630Z,64.50
2018-11-21T09:32:29.385Z,64.80
2018-11-21T09:37:28.628Z,64.90
2018-11-21T09:42:32.172Z,65.20
2018-11-21T09:47:35.700Z,64.70
2018-11-21T09:52:39.283Z,64.40
2018-11-21T09:57:42.790Z,63.80
2018-11-21T10:03:11.941Z,63.50
2018-11-21T10:08:32.112Z,63.00
2018-11-21T10:13:35.622Z,63.30
2018-11-21T10:18:40.345Z,63.30
2018-11-21T10:23:45.259Z,63.20
2018-11-21T10:28:48.029Z,62.70
2018-11-21T10:33:51.606Z,62.00
2018-11-21T10:38:55.145Z,62.30
2018-11-21T10:43:58.688Z,62.10
2018-11-21T10:49:05.454Z,61.80
2018-11-21T10:54:09.036Z,62.00
2018-11-21T10:59:12.797Z,61.90
2018-11-21T11:04:35.779Z,62.10
2018-11-21T11:09:56.746Z,62.30
2018-11-21T11:15:19.274Z,61.70
2018-11-21T11:20:49.824Z,61.20
2018-11-21T11:26:12.161Z,61.20
2018-11-21T11:32:35.514Z,60.80
2018-11-21T11:38:00.387Z,61.20
2018-11-21T11:43:30.290Z,60.40
2018-11-21T11:48:49.050Z,60.80
2018-11-21T11:54:05.593Z,60.00
2018-11-21T11:59:26.805Z,59.70
2018-11-21T12:04:50.472Z,60.30
2018-11-21T12:10:12.767Z,60.20
2018-11-21T12:15:52.510Z,60.40
2018-11-21T12:21:15.469Z,60.00
2018-11-21T12:26:43.745Z,59.90
2018-11-21T12:32:09.980Z,60.10
2018-11-21T12:37:33.961Z,60.20
2018-11-21T12:43:16.268Z,59.70
2018-11-21T12:48:48.866Z,60.50
2018-11-21T12:54:15.915Z,60.70
2018-11-21T12:59:38.271Z,60.10
2018-11-21T13:05:17.217Z,59.80
2018-11-21T13:10:40.538Z,59.30
2018-11-21T13:16:02.825Z,59.30
2018-11-21T13:21:26.211Z,59.90
2018-11-21T13:26:55.864Z,60.10
2018-11-21T13:38:00.269Z,59.60
2018-11-21T13:43:43.578Z,58.40
2018-11-21T13:49:06.233Z,59.40
2018-11-21T13:54:48.808Z,59.80
2018-11-21T14:00:12.845Z,59.60
2018-11-21T14:05:36.782Z,59.20
2018-11-21T14:11:00.664Z,58.90
2018-11-21T14:21:56.024Z,59.70
2018-11-21T14:27:19.375Z,59.70
2018-11-21T14:32:24.484Z,59.70
2018-11-21T14:37:48.385Z,59.70
2018-11-21T14:42:54.506Z,59.80
2018-11-21T14:48:01.226Z,59.90
2018-11-21T14:53:08.853Z,60.00
2018-11-21T14:58:14.749Z,60.10
2018-11-21T15:03:19.877Z,59.80
2018-11-21T15:08:27.677Z,59.60
2018-11-21T15:13:35.597Z,59.40
2018-11-21T15:18:41.525Z,59.60
2018-11-21T15:23:46.599Z,60.00
2018-11-21T15:28:52.504Z,59.70
2018-11-21T15:33:59.135Z,60.00
2018-11-21T15:39:06.427Z,59.90
2018-11-21T15:44:14.364Z,60.30
2018-11-21T15:49:20.958Z,60.40
2018-11-21T15:54:25.991Z,60.00
2018-11-21T15:59:32.232Z,60.10
2018-11-21T16:04:44.324Z,60.00
2018-11-21T16:09:49.107Z,60.00
2018-11-21T16:14:54.347Z,59.90
2018-11-21T16:20:11.109Z,60.30
2018-11-21T16:25:18.536Z,60.20
2018-11-21T16:30:25.022Z,60.50
2018-11-21T16:35:30.082Z,60.00
2018-11-21T16:40:38.111Z,59.90
2018-11-21T16:45:45.525Z,59.80
2018-11-21T16:50:50.571Z,60.00
2018-11-21T16:55:58.533Z,60.40
2018-11-21T17:01:02.649Z,61.30
2018-11-21T17:06:08.782Z,61.20
2018-11-21T17:11:15.413Z,61.70
2018-11-21T17:16:21.351Z,61.70
2018-11-21T17:21:29.191Z,62.00
2018-11-21T17:26:38.802Z,62.00
2018-11-21T17:31:44.524Z,62.20
2018-11-21T17:36:50.886Z,62.60
2018-11-21T17:41:56.841Z,62.80
2018-11-21T17:47:10.981Z,62.70
2018-11-21T17:52:17.885Z,62.60
2018-11-21T17:57:28.001Z,62.50
2018-11-21T18:02:30.872Z,62.40
2018-11-21T18:07:36.170Z,62.40
2018-11-21T18:12:42.712Z,62.50
2018-11-21T18:17:49.009Z,62.50
2018-11-21T18:23:04.067Z,62.10
2018-11-21T18:28:11.499Z,62.40
2018-11-21T18:33:18.665Z,62.30
2018-11-21T18:38:23.723Z,62.00
2018-11-21T18:43:29.626Z,62.30
2018-11-21T18:48:34.711Z,62.40
2018-11-21T18:53:40.603Z,62.50
2018-11-21T18:59:10.426Z,62.30
2018-11-21T19:04:15.592Z,62.30
2018-11-21T19:09:20.713Z,62.90
2018-11-21T19:14:27.748Z,62.70
2018-11-21T19:19:33.686Z,62.50
2018-11-21T19:24:38.716Z,62.00
2018-11-21T19:29:47.966Z,61.80
2018-11-21T19:34:56.831Z,62.00
2018-11-21T19:40:03.640Z,62.40
2018-11-21T19:45:28.442Z,62.30
2018-11-21T19:50:53.196Z,62.10
2018-11-21T19:55:58.355Z,62.40
2018-11-21T20:01:03.526Z,62.60
2018-11-21T20:11:38.827Z,62.30
2018-11-21T20:17:21.657Z,61.90
2018-11-21T20:22:46.045Z,61.20
2018-11-21T20:27:50.963Z,61.50
2018-11-21T20:32:59.634Z,61.40
2018-11-21T20:38:05.595Z,60.70
2018-11-21T20:43:11.466Z,61.50
2018-11-21T20:48:19.721Z,61.30
2018-11-21T20:53:24.885Z,61.20
2018-11-21T20:58:30.828Z,61.30
2018-11-21T21:03:35.982Z,61.60
2018-11-21T21:08:43.008Z,61.50
2018-11-21T21:13:49.402Z,61.50
2018-11-21T21:18:54.152Z,61.20
2018-11-21T21:24:02.355Z,61.50
2018-11-21T21:29:07.794Z,61.50
2018-11-21T21:34:12.921Z,61.40
2018-11-21T21:39:18.029Z,61.50
2018-11-21T21:44:26.959Z,61.50
2018-11-21T21:49:34.410Z,61.60
2018-11-21T21:54:40.225Z,61.60
2018-11-21T21:59:45.264Z,61.60
2018-11-21T22:04:51.078Z,61.60
2018-11-21T22:09:56.195Z,61.80
2018-11-21T22:15:01.390Z,62.00
2018-11-21T22:20:08.725Z,61.90
2018-11-21T22:25:14.584Z,62.00
2018-11-21T22:30:19.707Z,62.00
2018-11-21T22:35:29.441Z,61.80
2018-11-21T22:40:36.466Z,61.90
2018-11-21T22:45:41.478Z,62.00
2018-11-21T22:50:46.504Z,62.30
2018-11-21T22:55:51.676Z,62.60
2018-11-21T23:00:57.661Z,62.60
2018-11-21T23:06:02.770Z,62.40
2018-11-21T23:11:07.810Z,62.30
2018-11-21T23:16:14.923Z,62.60
2018-11-21T23:21:20.447Z,62.50
2018-11-21T23:26:27.609Z,62.30
2018-11-21T23:31:33.564Z,62.20
2018-11-21T23:36:38.609Z,62.40
2018-11-21T23:41:44.078Z,62.60
2018-11-21T23:46:50.645Z,63.00
2018-11-21T23:51:55.137Z,63.60
2018-11-21T23:57:15.882Z,64.00
